Airfield :
LOGIN :

Register | Disclaimer

   EN    FR    IT 

 










Legend :    VFR   Marginal VFR   IFR   Intensive IFR   Very Intensive IFR
Visi :
Ceiling :
>= 8 km
>= 3000ft
5 to 8 km
1000 to 3000 ft
1500m to 5 km
500 to 1000 ft
800 to 1500m
200 to 500 ft
< 800m
< 200 ft
Symbols :   Thunderstorms  Fog  Heavy snow  Heavy precipitations  Wind > 20 kt
SIGMETs :     Misc.  Thunderstorms  Icing  Turbulence  Mountain Waves  Volcanic Ashes






- Airport Elevation : 7 ft
- IATA code : ESH


EGKA - Shoreham

CURRENT METAR :
  • 301250Z 11006KT 9999 FEW016 10/07 Q1025

EXPIRED METARs :
  • 301220Z 11006KT 9999 FEW016 10/07 Q1025
  • 301150Z 10004KT 9999 FEW017 10/07 Q1024
  • 301120Z 08005KT 9999 FEW006 SCT030 10/07 Q1024
  • 301050Z 06005KT 9999 FEW004 SCT029 09/08 Q1025
  • 301020Z 05005KT 9999 FEW004 SCT031 08/08 Q1025

TAF TAF EGKA
Valid from the 30 at 12:00 until the 30 at 20:00 UTC


301103Z 3012/3020 06005KT 9999 FEW010 SCT025
PROB30
TEMPO 3012/3020 8000
ATIS : +44 1273 467 372



MET'MAP, your aeronautical weather chart ! - Copyright ORBIFLY December 2007 - Disclaimer

ORBIFLY MET'MAP TEAM :

Programming & Development : Alexandra Zaïnal
Original concept : Baudouin d'Aumeries
Technical & hardware support : Manuel Goepfert
Assistance : Marc-Olivier Méhu




SOURCES & CREDITS :

   NOAA